createdAt,value
2017-04-28T00:00:09.715Z,0
2017-04-28T00:01:09.747Z,0
2017-04-28T00:02:09.780Z,0
2017-04-28T00:03:09.818Z,0
2017-04-28T00:04:10.150Z,0
2017-04-28T00:05:10.411Z,0
2017-04-28T00:06:09.915Z,0
2017-04-28T00:07:10.554Z,0
2017-04-28T00:08:10.591Z,0
2017-04-28T00:09:10.318Z,0
2017-04-28T00:10:10.057Z,0
2017-04-28T00:11:10.082Z,0
2017-04-28T00:12:10.119Z,0
2017-04-28T00:13:10.149Z,0
2017-04-28T00:14:11.114Z,0
2017-04-28T00:15:10.215Z,0
2017-04-28T00:16:10.560Z,0
2017-04-28T00:17:10.286Z,0
2017-04-28T00:18:10.638Z,0
2017-04-28T00:19:11.281Z,0
2017-04-28T00:20:10.994Z,0
2017-04-28T00:21:10.725Z,0
2017-04-28T00:22:11.072Z,0
2017-04-28T00:23:11.097Z,0
2017-04-28T00:24:10.822Z,0
2017-04-28T00:25:11.167Z,0
2017-04-28T00:26:10.892Z,0
2017-04-28T00:27:10.926Z,0
2017-04-28T00:28:10.962Z,0
2017-04-28T00:29:11.314Z,0
2017-04-28T00:30:10.717Z,0
2017-04-28T00:31:11.370Z,0
2017-04-28T00:32:10.793Z,0
2017-04-28T00:33:11.440Z,0
2017-04-28T00:34:10.857Z,0
2017-04-28T00:35:10.890Z,0
2017-04-28T00:36:10.923Z,0
2017-04-28T00:37:11.582Z,0
2017-04-28T00:38:10.986Z,0
2017-04-28T00:39:11.664Z,0
2017-04-28T00:40:11.056Z,0
2017-04-28T00:41:11.707Z,0
2017-04-28T00:42:11.125Z,0
2017-04-28T00:43:12.095Z,0
2017-04-28T00:44:11.802Z,0
2017-04-28T00:45:11.224Z,0
2017-04-28T00:46:11.271Z,0
2017-04-28T00:47:11.600Z,0
2017-04-28T00:48:11.662Z,0
2017-04-28T00:49:11.987Z,0
2017-04-28T00:50:12.018Z,0
2017-04-28T00:51:11.438Z,0
2017-04-28T00:52:11.793Z,0
2017-04-28T00:53:12.429Z,0
2017-04-28T00:54:12.148Z,0
2017-04-28T00:55:11.880Z,0
2017-04-28T00:56:11.616Z,0
2017-04-28T00:57:11.938Z,0
2017-04-28T00:58:12.293Z,0
2017-04-28T00:59:11.703Z,0
2017-04-28T01:00:11.738Z,0
2017-04-28T01:01:12.081Z,0
2017-04-28T01:02:12.445Z,0
2017-04-28T01:03:11.841Z,0
2017-04-28T01:04:11.870Z,0
2017-04-28T01:05:11.904Z,0
2017-04-28T01:06:11.933Z,0
2017-04-28T01:07:11.988Z,0
2017-04-28T01:08:11.998Z,0
2017-04-28T01:09:12.349Z,0
2017-04-28T01:10:12.375Z,0
2017-04-28T01:11:12.415Z,0
2017-04-28T01:12:12.455Z,0
2017-04-28T01:13:12.793Z,0
2017-04-28T01:14:12.207Z,0
2017-04-28T01:15:12.550Z,0
2017-04-28T01:16:12.268Z,0
2017-04-28T01:17:12.625Z,0
2017-04-28T01:18:12.350Z,0
2017-04-28T01:19:12.687Z,0
2017-04-28T01:20:12.402Z,0
2017-04-28T01:21:12.441Z,0
2017-04-28T01:22:12.777Z,0
2017-04-28T01:23:12.808Z,0
2017-04-28T01:24:13.164Z,0
2017-04-28T01:25:12.570Z,0
2017-04-28T01:26:12.608Z,0
2017-04-28T01:27:12.947Z,0
2017-04-28T01:28:12.681Z,0
2017-04-28T01:29:13.012Z,0
2017-04-28T01:30:12.740Z,0
2017-04-28T01:31:12.775Z,0
2017-04-28T01:32:13.423Z,0
2017-04-28T01:33:12.844Z,0
2017-04-28T01:34:13.487Z,0
2017-04-28T01:35:13.218Z,0
2017-04-28T01:36:13.246Z,0
2017-04-28T01:37:12.977Z,0
2017-04-28T01:38:13.321Z,0
2017-04-28T01:39:13.351Z,0
2017-04-28T01:40:13.697Z,0
2017-04-28T01:41:13.421Z,0
2017-04-28T01:42:13.139Z,0
2017-04-28T01:43:13.478Z,0
2017-04-28T01:44:13.214Z,0
2017-04-28T01:45:13.553Z,0
2017-04-28T01:46:13.282Z,0
2017-04-28T01:47:13.616Z,0
2017-04-28T01:48:13.662Z,0
2017-04-28T01:49:13.371Z,0
2017-04-28T01:50:13.450Z,0
2017-04-28T01:51:13.751Z,0
2017-04-28T01:52:13.475Z,0
2017-04-28T01:53:13.508Z,0
2017-04-28T01:54:14.159Z,0
2017-04-28T01:55:13.886Z,0
2017-04-28T01:56:13.609Z,0
2017-04-28T01:57:13.636Z,0
2017-04-28T01:58:13.984Z,0
2017-04-28T01:59:14.327Z,0
2017-04-28T02:00:14.050Z,0
2017-04-28T02:01:13.774Z,0
2017-04-28T02:02:13.811Z,0
2017-04-28T02:03:13.843Z,0
2017-04-28T02:04:14.187Z,0
2017-04-28T02:05:13.905Z,0
2017-04-28T02:06:13.945Z,0
2017-04-28T02:07:13.975Z,0
2017-04-28T02:08:14.005Z,0
2017-04-28T02:09:14.041Z,0
2017-04-28T02:10:14.386Z,0
2017-04-28T02:11:14.113Z,0
2017-04-28T02:12:14.449Z,0
2017-04-28T02:13:14.490Z,0
2017-04-28T02:14:14.519Z,0
2017-04-28T02:15:14.245Z,0
2017-04-28T02:16:14.588Z,0
2017-04-28T02:17:14.615Z,0
2017-04-28T02:18:14.358Z,0
2017-04-28T02:19:14.687Z,0
2017-04-28T02:20:14.407Z,0
2017-04-28T02:21:14.441Z,0
2017-04-28T02:22:14.474Z,0
2017-04-28T02:23:15.127Z,0
2017-04-28T02:24:14.542Z,0
2017-04-28T02:25:15.192Z,0
2017-04-28T02:26:15.229Z,0
2017-04-28T02:27:15.258Z,0
2017-04-28T02:28:14.990Z,0
2017-04-28T02:29:15.017Z,0
2017-04-28T02:30:14.740Z,0
2017-04-28T02:31:15.392Z,0
2017-04-28T02:32:14.813Z,0
2017-04-28T02:33:14.840Z,0
2017-04-28T02:34:15.194Z,0
2017-04-28T02:35:14.908Z,0
2017-04-28T02:36:14.941Z,0
2017-04-28T02:37:15.591Z,0
2017-04-28T02:38:15.628Z,0
2017-04-28T02:39:15.353Z,0
2017-04-28T02:40:15.696Z,0
2017-04-28T02:41:15.107Z,0
2017-04-28T02:42:15.142Z,0
2017-04-28T02:43:16.100Z,0
2017-04-28T02:44:15.520Z,0
2017-04-28T02:45:15.859Z,0
2017-04-28T02:46:15.580Z,0
2017-04-28T02:47:15.617Z,0
2017-04-28T02:48:15.681Z,0
2017-04-28T02:49:15.683Z,0
2017-04-28T02:50:15.405Z,0
2017-04-28T02:51:15.441Z,0
2017-04-28T02:52:15.472Z,0
2017-04-28T02:53:15.512Z,0
2017-04-28T02:54:16.157Z,0
2017-04-28T02:55:15.881Z,0
2017-04-28T02:56:15.601Z,0
2017-04-28T02:57:15.678Z,0
2017-04-28T02:58:15.978Z,0
2017-04-28T02:59:16.322Z,0
2017-04-28T03:00:16.042Z,0
2017-04-28T03:01:15.770Z,0
2017-04-28T03:02:15.804Z,0
2017-04-28T03:03:15.833Z,0
2017-04-28T03:04:15.866Z,0
2017-04-28T03:05:15.898Z,0
2017-04-28T03:06:15.931Z,0
2017-04-28T03:07:16.286Z,0
2017-04-28T03:08:16.305Z,0
2017-04-28T03:09:16.349Z,0
2017-04-28T03:10:16.095Z,0
2017-04-28T03:11:16.716Z,0
2017-04-28T03:12:16.136Z,0
2017-04-28T03:13:16.473Z,0
2017-04-28T03:14:16.204Z,4
2017-04-28T03:15:17.152Z,4
2017-04-28T03:16:16.568Z,4
2017-04-28T03:17:16.605Z,4
2017-04-28T03:18:16.635Z,4
2017-04-28T03:19:16.671Z,8
2017-04-28T03:20:16.394Z,4
2017-04-28T03:21:16.425Z,8
2017-04-28T03:22:17.084Z,8
2017-04-28T03:23:16.909Z,8
2017-04-28T03:24:17.143Z,8
2017-04-28T03:25:16.557Z,12
2017-04-28T03:26:16.894Z,12
2017-04-28T03:27:16.931Z,16
2017-04-28T03:28:16.665Z,20
2017-04-28T03:29:16.997Z,24
2017-04-28T03:30:16.719Z,24
2017-04-28T03:31:17.064Z,28
2017-04-28T03:32:16.786Z,32
2017-04-28T03:33:17.135Z,36
2017-04-28T03:34:16.853Z,40
2017-04-28T03:35:16.883Z,44
2017-04-28T03:36:16.920Z,52
2017-04-28T03:37:17.258Z,56
2017-04-28T03:38:17.599Z,68
2017-04-28T03:39:17.237Z,72
2017-04-28T03:40:17.046Z,80
2017-04-28T03:41:17.385Z,88
2017-04-28T03:42:17.421Z,96
2017-04-28T03:43:17.157Z,108
2017-04-28T03:44:17.184Z,120
2017-04-28T03:45:17.826Z,132
2017-04-28T03:46:17.246Z,144
2017-04-28T03:47:17.274Z,160
2017-04-28T03:48:17.618Z,180
2017-04-28T03:49:18.264Z,200
2017-04-28T03:50:17.372Z,220
2017-04-28T03:51:17.404Z,240
2017-04-28T03:52:18.086Z,256
2017-04-28T03:53:18.089Z,272
2017-04-28T03:54:17.515Z,288
2017-04-28T03:55:17.537Z,304
2017-04-28T03:56:17.877Z,320
2017-04-28T03:57:17.601Z,328
2017-04-28T03:58:17.949Z,344
2017-04-28T03:59:17.978Z,360
2017-04-28T04:00:18.011Z,376
2017-04-28T04:01:17.734Z,396
2017-04-28T04:02:17.762Z,412
2017-04-28T04:03:18.107Z,432
2017-04-28T04:04:18.137Z,452
2017-04-28T04:05:17.862Z,480
2017-04-28T04:06:17.895Z,504
2017-04-28T04:07:17.929Z,528
2017-04-28T04:08:17.959Z,544
2017-04-28T04:09:18.314Z,560
2017-04-28T04:10:18.024Z,564
2017-04-28T04:11:18.393Z,572
2017-04-28T04:12:18.124Z,584
2017-04-28T04:13:18.747Z,600
2017-04-28T04:14:18.778Z,620
2017-04-28T04:15:18.503Z,656
2017-04-28T04:16:18.535Z,708
2017-04-28T04:17:18.581Z,768
2017-04-28T04:18:18.595Z,836
2017-04-28T04:19:18.937Z,896
2017-04-28T04:20:18.661Z,932
2017-04-28T04:21:18.390Z,892
2017-04-28T04:22:19.033Z,828
2017-04-28T04:23:18.761Z,828
2017-04-28T04:24:18.797Z,896
2017-04-28T04:25:18.849Z,1056
2017-04-28T04:26:18.551Z,1360
2017-04-28T04:27:18.892Z,1728
2017-04-28T04:28:18.929Z,2016
2017-04-28T04:29:19.263Z,2164
2017-04-28T04:30:18.677Z,2112
2017-04-28T04:31:18.717Z,2136
2017-04-28T04:32:18.747Z,2188
2017-04-28T04:33:19.712Z,2296
2017-04-28T04:34:19.433Z,2508
2017-04-28T04:35:19.154Z,2804
2017-04-28T04:36:19.179Z,3132
2017-04-28T04:37:18.910Z,3332
2017-04-28T04:38:19.255Z,3444
2017-04-28T04:39:19.590Z,3520
2017-04-28T04:40:19.321Z,3508
2017-04-28T04:41:20.008Z,3484
2017-04-28T04:42:19.382Z,3480
2017-04-28T04:43:19.726Z,3488
2017-04-28T04:44:19.452Z,3524
2017-04-28T04:45:19.176Z,3572
2017-04-28T04:46:19.519Z,3620
2017-04-28T04:47:19.241Z,3660
2017-04-28T04:48:19.894Z,3696
2017-04-28T04:49:19.619Z,3712
2017-04-28T04:50:19.354Z,3704
2017-04-28T04:51:19.686Z,3692
2017-04-28T04:52:19.723Z,3716
2017-04-28T04:53:19.753Z,3728
2017-04-28T04:54:19.794Z,3784
2017-04-28T04:55:19.827Z,3816
2017-04-28T04:56:20.164Z,3852
2017-04-28T04:57:19.579Z,3872
2017-04-28T04:58:19.615Z,3868
2017-04-28T04:59:19.966Z,3848
2017-04-28T05:00:19.688Z,3808
2017-04-28T05:01:20.027Z,3776
2017-04-28T05:02:19.756Z,3760
2017-04-28T05:03:19.793Z,3748
2017-04-28T05:04:19.820Z,3768
2017-04-28T05:05:19.857Z,3816
2017-04-28T05:06:19.887Z,3852
2017-04-28T05:07:20.235Z,3872
2017-04-28T05:08:20.266Z,3872
2017-04-28T05:09:20.607Z,3872
2017-04-28T05:10:20.028Z,3856
2017-04-28T05:11:20.369Z,3828
2017-04-28T05:12:20.096Z,3812
2017-04-28T05:13:20.131Z,3796
2017-04-28T05:14:20.473Z,3796
2017-04-28T05:15:20.199Z,3828
2017-04-28T05:16:20.541Z,3864
2017-04-28T05:17:20.895Z,3912
2017-04-28T05:18:20.622Z,3940
2017-04-28T05:19:20.649Z,3960
2017-04-28T05:20:20.368Z,3984
2017-04-28T05:21:20.710Z,4016
2017-04-28T05:22:20.651Z,4060
2017-04-28T05:23:21.393Z,4124
2017-04-28T05:24:21.435Z,4204
2017-04-28T05:25:20.538Z,4280
2017-04-28T05:26:20.904Z,4360
2017-04-28T05:27:20.610Z,4448
2017-04-28T05:28:21.274Z,4516
2017-04-28T05:29:20.987Z,4560
2017-04-28T05:30:21.334Z,4640
2017-04-28T05:31:20.745Z,4728
2017-04-28T05:32:21.093Z,4808
2017-04-28T05:33:21.437Z,4860
2017-04-28T05:34:21.773Z,4872
2017-04-28T05:35:21.198Z,4852
2017-04-28T05:36:21.576Z,4820
2017-04-28T05:37:21.269Z,4780
2017-04-28T05:38:20.988Z,4740
2017-04-28T05:39:21.643Z,4704
2017-04-28T05:40:21.068Z,4648
2017-04-28T05:41:21.398Z,4588
2017-04-28T05:42:21.437Z,4532
2017-04-28T05:43:21.782Z,4516
2017-04-28T05:44:21.816Z,4524
2017-04-28T05:45:21.858Z,4524
2017-04-28T05:46:21.268Z,4480
2017-04-28T05:47:21.913Z,4396
2017-04-28T05:48:21.646Z,4272
2017-04-28T05:49:21.676Z,4180
2017-04-28T05:50:21.727Z,4144
2017-04-28T05:51:21.746Z,4180
2017-04-28T05:52:21.471Z,4276
2017-04-28T05:53:22.123Z,4448
2017-04-28T05:54:21.542Z,4620
2017-04-28T05:55:21.804Z,4828
2017-04-28T05:56:21.615Z,4996
2017-04-28T05:57:21.648Z,5156
2017-04-28T05:58:21.680Z,5260
2017-04-28T05:59:21.720Z,5260
2017-04-28T06:00:22.389Z,5208
2017-04-28T06:01:21.785Z,5136
2017-04-28T06:02:21.831Z,5052
2017-04-28T06:03:22.473Z,4932
2017-04-28T06:04:21.893Z,4752
2017-04-28T06:05:21.934Z,4596
2017-04-28T06:06:22.271Z,4552
2017-04-28T06:07:22.307Z,4656
2017-04-28T06:08:22.336Z,4884
2017-04-28T06:09:22.377Z,5176
2017-04-28T06:10:22.410Z,5432
2017-04-28T06:11:22.135Z,5568
2017-04-28T06:12:22.168Z,5592
2017-04-28T06:13:22.511Z,5580
2017-04-28T06:14:22.559Z,5624
2017-04-28T06:15:22.275Z,5732
2017-04-28T06:16:22.619Z,5856
2017-04-28T06:17:22.968Z,5980
2017-04-28T06:18:23.307Z,5992
2017-04-28T06:19:23.071Z,5960
2017-04-28T06:20:22.872Z,5868
2017-04-28T06:21:22.617Z,5812
2017-04-28T06:22:23.140Z,5832
2017-04-28T06:23:23.181Z,5928
2017-04-28T06:24:23.209Z,6112
2017-04-28T06:25:22.933Z,6348
2017-04-28T06:26:23.323Z,6588
2017-04-28T06:27:23.201Z,6744
2017-04-28T06:28:23.405Z,6812
2017-04-28T06:29:22.766Z,6780
2017-04-28T06:30:22.915Z,6720
2017-04-28T06:31:22.840Z,6648
2017-04-28T06:32:23.327Z,6588
2017-04-28T06:33:23.215Z,6452
2017-04-28T06:34:22.942Z,6112
2017-04-28T06:35:22.979Z,5768
2017-04-28T06:36:23.637Z,5444
2017-04-28T06:37:23.087Z,5216
2017-04-28T06:38:23.711Z,5084
2017-04-28T06:39:23.122Z,5104
2017-04-28T06:40:23.460Z,5072
2017-04-28T06:41:23.497Z,5036
2017-04-28T06:42:23.539Z,4912
2017-04-28T06:43:23.881Z,4632
2017-04-28T06:44:23.609Z,4332
2017-04-28T06:45:23.336Z,4068
2017-04-28T06:46:23.372Z,3880
2017-04-28T06:47:23.769Z,3800
2017-04-28T06:48:23.749Z,3852
2017-04-28T06:49:23.794Z,4008
2017-04-28T06:50:23.821Z,4240
2017-04-28T06:51:23.886Z,4536
2017-04-28T06:52:23.885Z,4808
2017-04-28T06:53:24.239Z,5016
2017-04-28T06:54:24.578Z,5240
2017-04-28T06:55:24.309Z,5416
2017-04-28T06:56:23.725Z,5632
2017-04-28T06:57:23.763Z,5908
2017-04-28T06:58:24.418Z,6272
2017-04-28T06:59:24.484Z,6684
2017-04-28T07:00:24.181Z,6908
2017-04-28T07:01:23.901Z,7044
2017-04-28T07:02:24.560Z,7052
2017-04-28T07:03:24.281Z,7108
2017-04-28T07:04:24.647Z,7124
2017-04-28T07:05:24.354Z,7188
2017-04-28T07:06:24.081Z,7232
2017-04-28T07:07:24.114Z,7300
2017-04-28T07:08:24.172Z,7376
2017-04-28T07:09:24.804Z,7408
2017-04-28T07:10:24.220Z,7420
2017-04-28T07:11:24.274Z,7440
2017-04-28T07:12:24.303Z,7500
2017-04-28T07:13:24.982Z,7580
2017-04-28T07:14:24.673Z,7628
2017-04-28T07:15:24.765Z,7664
2017-04-28T07:16:24.744Z,7704
2017-04-28T07:17:24.480Z,7668
2017-04-28T07:18:24.875Z,7496
2017-04-28T07:19:24.852Z,7180
2017-04-28T07:20:24.591Z,6760
2017-04-28T07:21:24.940Z,6332
2017-04-28T07:22:25.436Z,6012
2017-04-28T07:23:24.778Z,5820
2017-04-28T07:24:25.032Z,5736
2017-04-28T07:25:25.074Z,5728
2017-04-28T07:26:25.719Z,5764
2017-04-28T07:27:25.143Z,5820
2017-04-28T07:28:25.175Z,5868
2017-04-28T07:29:25.213Z,5912
2017-04-28T07:30:24.944Z,5948
2017-04-28T07:31:25.280Z,6000
2017-04-28T07:32:25.014Z,6060
2017-04-28T07:33:26.259Z,6132
2017-04-28T07:34:25.696Z,6196
2017-04-28T07:35:25.116Z,6248
2017-04-28T07:36:25.497Z,6296
2017-04-28T07:37:25.189Z,6360
2017-04-28T07:38:25.227Z,6448
2017-04-28T07:39:25.880Z,6568
2017-04-28T07:40:25.609Z,6692
2017-04-28T07:41:25.643Z,6804
2017-04-28T07:42:25.796Z,6888
2017-04-28T07:43:26.024Z,6904
2017-04-28T07:44:25.748Z,6832
2017-04-28T07:45:26.087Z,6760
2017-04-28T07:46:25.514Z,6800
2017-04-28T07:47:25.859Z,6992
2017-04-28T07:48:25.893Z,7256
2017-04-28T07:49:25.629Z,7464
2017-04-28T07:50:25.664Z,7608
2017-04-28T07:51:26.006Z,7708
2017-04-28T07:52:25.744Z,7728
2017-04-28T07:53:25.763Z,7688
2017-04-28T07:54:25.807Z,7600
2017-04-28T07:55:26.148Z,7536
2017-04-28T07:56:26.025Z,7480
2017-04-28T07:57:25.929Z,7396
2017-04-28T07:58:26.251Z,7344
2017-04-28T07:59:26.289Z,7444
2017-04-28T08:00:26.022Z,7660
2017-04-28T08:01:26.055Z,7900
2017-04-28T08:02:26.089Z,8024
2017-04-28T08:03:26.445Z,7976
2017-04-28T08:04:26.473Z,7888
2017-04-28T08:05:26.203Z,7876
2017-04-28T08:06:26.240Z,7980
2017-04-28T08:07:26.595Z,8120
2017-04-28T08:08:26.524Z,8252
2017-04-28T08:09:26.350Z,8376
2017-04-28T08:10:26.695Z,8496
2017-04-28T08:11:26.731Z,8644
2017-04-28T08:12:26.494Z,8788
2017-04-28T08:13:26.502Z,8780
2017-04-28T08:14:27.147Z,8644
2017-04-28T08:15:26.873Z,8472
2017-04-28T08:16:26.604Z,8456
2017-04-28T08:17:27.675Z,8536
2017-04-28T08:18:26.698Z,8692
2017-04-28T08:19:27.021Z,8888
2017-04-28T08:20:26.756Z,9092
2017-04-28T08:21:27.092Z,9252
2017-04-28T08:22:27.129Z,9364
2017-04-28T08:23:26.866Z,9400
2017-04-28T08:24:27.201Z,9392
2017-04-28T08:25:26.934Z,9384
2017-04-28T08:26:27.277Z,9400
2017-04-28T08:27:27.008Z,9428
2017-04-28T08:28:27.444Z,9452
2017-04-28T08:29:27.386Z,9508
2017-04-28T08:30:27.131Z,9572
2017-04-28T08:31:27.156Z,9580
2017-04-28T08:32:27.191Z,9480
2017-04-28T08:33:27.927Z,9216
2017-04-28T08:34:27.259Z,8868
2017-04-28T08:35:27.917Z,8632
2017-04-28T08:36:27.640Z,8612
2017-04-28T08:37:27.377Z,8724
2017-04-28T08:38:27.408Z,8836
2017-04-28T08:39:27.753Z,8888
2017-04-28T08:40:28.100Z,8780
2017-04-28T08:41:27.829Z,8524
2017-04-28T08:42:28.171Z,8208
2017-04-28T08:43:27.907Z,8008
2017-04-28T08:44:28.250Z,7908
2017-04-28T08:45:27.974Z,7844
2017-04-28T08:46:27.707Z,7828
2017-04-28T08:47:28.358Z,7864
2017-04-28T08:48:27.781Z,7912
2017-04-28T08:49:27.842Z,7900
2017-04-28T08:50:27.853Z,7860
2017-04-28T08:51:28.202Z,7844
2017-04-28T08:52:28.234Z,7844
2017-04-28T08:53:28.576Z,7856
2017-04-28T08:54:27.997Z,7808
2017-04-28T08:55:28.055Z,7672
2017-04-28T08:56:28.381Z,7688
2017-04-28T08:57:28.111Z,7932
2017-04-28T08:58:28.148Z,8184
2017-04-28T08:59:28.508Z,8252
2017-04-28T09:00:28.229Z,8264
2017-04-28T09:01:28.262Z,8384
2017-04-28T09:02:28.297Z,8468
2017-04-28T09:03:29.100Z,8440
2017-04-28T09:04:28.681Z,8440
2017-04-28T09:05:28.716Z,8496
2017-04-28T09:06:28.757Z,8596
2017-04-28T09:07:28.484Z,8712
2017-04-28T09:08:28.517Z,8788
2017-04-28T09:09:28.553Z,8796
2017-04-28T09:10:29.209Z,8784
2017-04-28T09:11:29.246Z,8760
2017-04-28T09:12:28.669Z,8720
2017-04-28T09:13:29.014Z,8696
2017-04-28T09:14:29.052Z,8648
2017-04-28T09:15:29.390Z,8560
2017-04-28T09:16:29.122Z,8440
2017-04-28T09:17:29.260Z,8376
2017-04-28T09:18:28.889Z,8456
2017-04-28T09:19:29.239Z,8532
2017-04-28T09:20:29.593Z,8548
2017-04-28T09:21:29.308Z,8556
2017-04-28T09:22:29.342Z,8640
2017-04-28T09:23:29.767Z,8812
2017-04-28T09:24:29.417Z,8908
2017-04-28T09:25:29.790Z,8976
2017-04-28T09:26:29.804Z,8996
2017-04-28T09:27:29.531Z,9048
2017-04-28T09:28:29.566Z,9112
2017-04-28T09:29:30.239Z,9216
2017-04-28T09:30:29.637Z,9380
2017-04-28T09:31:29.373Z,9608
2017-04-28T09:32:29.730Z,9768
2017-04-28T09:33:29.453Z,9760
2017-04-28T09:34:29.787Z,9712
2017-04-28T09:35:29.531Z,9724
2017-04-28T09:36:29.566Z,9812
2017-04-28T09:37:29.924Z,9924
2017-04-28T09:38:29.637Z,10184
2017-04-28T09:39:29.976Z,10616
2017-04-28T09:40:29.709Z,11068
2017-04-28T09:41:29.774Z,11420
2017-04-28T09:42:29.806Z,11592
2017-04-28T09:43:30.745Z,11568
2017-04-28T09:44:30.163Z,11364
2017-04-28T09:45:29.898Z,11140
2017-04-28T09:46:30.549Z,11020
2017-04-28T09:47:29.970Z,11056
2017-04-28T09:48:30.003Z,11348
2017-04-28T09:49:30.385Z,11864
2017-04-28T09:50:30.394Z,12540
2017-04-28T09:51:30.433Z,13344
2017-04-28T09:52:30.157Z,14144
2017-04-28T09:53:30.193Z,14872
2017-04-28T09:54:30.549Z,15624
2017-04-28T09:55:30.275Z,16544
2017-04-28T09:56:30.619Z,17280
2017-04-28T09:57:30.570Z,18016
2017-04-28T09:58:31.000Z,18432
2017-04-28T09:59:30.417Z,18944
2017-04-28T10:00:31.082Z,19936
2017-04-28T10:01:30.807Z,20000
2017-04-28T10:02:31.271Z,19904
2017-04-28T10:03:30.581Z,20160
2017-04-28T10:04:30.613Z,20000
2017-04-28T10:05:30.650Z,19872
2017-04-28T10:06:31.313Z,19936
2017-04-28T10:07:31.046Z,20128
2017-04-28T10:08:31.132Z,20480
2017-04-28T10:09:31.138Z,20992
2017-04-28T10:10:31.464Z,21184
2017-04-28T10:11:30.884Z,21440
2017-04-28T10:12:30.925Z,21504
2017-04-28T10:13:30.962Z,21344
2017-04-28T10:14:31.313Z,21152
2017-04-28T10:15:31.348Z,22144
2017-04-28T10:16:31.085Z,22240
2017-04-28T10:17:31.431Z,22752
2017-04-28T10:18:31.470Z,24320
2017-04-28T10:19:31.509Z,24256
2017-04-28T10:20:31.565Z,22688
2017-04-28T10:21:31.591Z,22144
2017-04-28T10:22:32.247Z,22720
2017-04-28T10:23:31.670Z,24576
2017-04-28T10:24:31.403Z,25856
2017-04-28T10:25:31.439Z,25856
2017-04-28T10:26:31.488Z,25472
2017-04-28T10:27:31.521Z,25952
2017-04-28T10:28:31.874Z,25376
2017-04-28T10:29:32.217Z,29088
2017-04-28T10:30:31.643Z,36512
2017-04-28T10:31:31.691Z,35744
2017-04-28T10:32:31.774Z,46432
2017-04-28T10:33:31.764Z,52064
2017-04-28T10:34:32.121Z,33440
2017-04-28T10:35:31.846Z,43872
2017-04-28T10:36:32.197Z,32480
2017-04-28T10:37:31.935Z,44768
2017-04-28T10:38:32.903Z,38752
2017-04-28T10:39:32.327Z,51520
2017-04-28T10:40:32.368Z,67456
2017-04-28T10:41:32.415Z,40832
2017-04-28T10:42:32.767Z,49120
2017-04-28T10:43:32.503Z,41504
2017-04-28T10:44:32.545Z,48384
2017-04-28T10:45:32.284Z,43200
2017-04-28T10:46:32.318Z,36544
2017-04-28T10:47:32.366Z,37216
2017-04-28T10:48:32.717Z,42016
2017-04-28T10:49:32.504Z,34016
2017-04-28T10:50:33.112Z,24000
2017-04-28T10:51:32.855Z,21120
2017-04-28T10:52:32.585Z,37664
2017-04-28T10:53:32.624Z,26240
2017-04-28T10:54:32.982Z,24736
2017-04-28T10:55:32.719Z,23040
2017-04-28T10:56:33.074Z,23744
2017-04-28T10:57:33.107Z,23520
2017-04-28T10:58:33.150Z,24640
2017-04-28T10:59:33.206Z,23808
2017-04-28T11:00:33.238Z,23520
2017-04-28T11:01:33.287Z,22880
2017-04-28T11:02:33.630Z,22496
2017-04-28T11:03:33.371Z,21664
2017-04-28T11:04:33.101Z,20576
2017-04-28T11:05:33.763Z,20352
2017-04-28T11:06:33.186Z,20160
2017-04-28T11:07:33.534Z,19648
2017-04-28T11:08:33.578Z,18752
2017-04-28T11:09:33.312Z,19200
2017-04-28T11:10:33.354Z,21664
2017-04-28T11:11:33.448Z,23744
2017-04-28T11:12:33.743Z,24416
2017-04-28T11:13:33.789Z,22944
2017-04-28T11:14:34.446Z,21792
2017-04-28T11:15:33.562Z,20768
2017-04-28T11:16:33.606Z,19072
2017-04-28T11:17:33.645Z,15936
2017-04-28T11:18:34.009Z,15128
2017-04-28T11:19:33.731Z,16704
2017-04-28T11:20:34.104Z,15924
2017-04-28T11:21:34.116Z,15116
2017-04-28T11:22:33.847Z,14140
2017-04-28T11:23:34.824Z,14320
2017-04-28T11:24:34.548Z,14708
2017-04-28T11:25:34.277Z,14748
2017-04-28T11:26:34.026Z,15288
2017-04-28T11:27:34.053Z,16640
2017-04-28T11:28:34.097Z,18368
2017-04-28T11:29:34.442Z,19584
2017-04-28T11:30:34.181Z,19776
2017-04-28T11:31:34.218Z,18816
2017-04-28T11:32:34.569Z,17760
2017-04-28T11:33:34.608Z,17280
2017-04-28T11:34:34.956Z,17088
2017-04-28T11:35:34.756Z,16768
2017-04-28T11:36:34.726Z,15836
2017-04-28T11:37:35.073Z,14640
2017-04-28T11:38:34.504Z,13384
2017-04-28T11:39:34.542Z,12716
2017-04-28T11:40:34.887Z,12792
2017-04-28T11:41:34.623Z,12988
2017-04-28T11:42:34.661Z,14368
2017-04-28T11:43:34.711Z,14740
2017-04-28T11:44:34.741Z,14348
2017-04-28T11:45:34.789Z,15032
2017-04-28T11:46:35.440Z,16416
2017-04-28T11:47:34.864Z,17216
2017-04-28T11:48:35.209Z,17440
2017-04-28T11:49:34.942Z,17408
2017-04-28T11:50:35.286Z,17216
2017-04-28T11:51:35.332Z,16864
2017-04-28T11:52:35.376Z,16120
2017-04-28T11:53:35.717Z,15240
2017-04-28T11:54:35.451Z,14260
2017-04-28T11:55:35.183Z,13792
2017-04-28T11:56:35.227Z,13752
2017-04-28T11:57:35.885Z,14120
2017-04-28T11:58:35.924Z,14496
2017-04-28T11:59:35.955Z,14776
2017-04-28T12:00:36.168Z,14984
2017-04-28T12:01:35.424Z,15220
2017-04-28T12:02:35.788Z,15420
2017-04-28T12:03:36.122Z,15516
2017-04-28T12:04:36.158Z,15512
2017-04-28T12:05:36.208Z,15564
2017-04-28T12:06:35.941Z,15660
2017-04-28T12:07:35.969Z,15624
2017-04-28T12:08:36.014Z,15440
2017-04-28T12:09:35.743Z,15188
2017-04-28T12:10:35.787Z,14908
2017-04-28T12:11:35.823Z,14504
2017-04-28T12:12:36.172Z,13984
2017-04-28T12:13:36.525Z,13540
2017-04-28T12:14:36.282Z,13284
2017-04-28T12:15:36.603Z,13168
2017-04-28T12:16:36.021Z,13208
2017-04-28T12:17:36.378Z,13316
2017-04-28T12:18:37.029Z,13404
2017-04-28T12:19:36.142Z,13512
2017-04-28T12:20:36.190Z,13512
2017-04-28T12:21:36.835Z,13400
2017-04-28T12:22:36.272Z,13348
2017-04-28T12:23:36.304Z,13368
2017-04-28T12:24:36.342Z,13400
2017-04-28T12:25:36.696Z,13520
2017-04-28T12:26:36.419Z,13668
2017-04-28T12:27:36.770Z,13776
2017-04-28T12:28:37.124Z,13780
2017-04-28T12:29:37.468Z,13748
2017-04-28T12:30:36.895Z,13628
2017-04-28T12:31:36.630Z,13312
2017-04-28T12:32:37.313Z,12860
2017-04-28T12:33:37.627Z,12428
2017-04-28T12:34:37.361Z,12108
2017-04-28T12:35:36.780Z,11836
2017-04-28T12:36:37.441Z,11620
2017-04-28T12:37:37.500Z,11340
2017-04-28T12:38:37.208Z,11224
2017-04-28T12:39:37.570Z,11192
2017-04-28T12:40:36.984Z,11328
2017-04-28T12:41:37.024Z,11508
2017-04-28T12:42:37.370Z,11580
2017-04-28T12:43:37.419Z,11620
2017-04-28T12:44:37.138Z,11744
2017-04-28T12:45:37.180Z,11920
2017-04-28T12:46:37.567Z,12072
2017-04-28T12:47:37.566Z,12104
2017-04-28T12:48:37.610Z,12048
2017-04-28T12:49:37.647Z,12060
2017-04-28T12:50:37.385Z,12224
2017-04-28T12:51:38.340Z,12432
2017-04-28T12:52:38.381Z,12504
2017-04-28T12:53:37.810Z,12436
2017-04-28T12:54:37.546Z,12280
2017-04-28T12:55:37.888Z,12144
2017-04-28T12:56:37.924Z,12120
2017-04-28T12:57:37.965Z,12180
2017-04-28T12:58:38.005Z,12284
2017-04-28T12:59:38.349Z,12308
2017-04-28T13:00:38.107Z,12184
2017-04-28T13:01:37.813Z,11944
2017-04-28T13:02:38.160Z,11600
2017-04-28T13:03:38.229Z,11216
2017-04-28T13:04:38.242Z,10868
2017-04-28T13:05:37.969Z,10552
2017-04-28T13:06:38.635Z,10384
2017-04-28T13:07:38.665Z,10484
2017-04-28T13:08:38.099Z,10768
2017-04-28T13:09:38.438Z,11088
2017-04-28T13:10:38.784Z,11360
2017-04-28T13:11:38.210Z,11512
2017-04-28T13:12:38.557Z,11540
2017-04-28T13:13:38.594Z,11444
2017-04-28T13:14:38.328Z,11304
2017-04-28T13:15:38.364Z,11220
2017-04-28T13:16:39.023Z,11204
2017-04-28T13:17:38.448Z,11184
2017-04-28T13:18:38.490Z,11120
2017-04-28T13:19:38.588Z,10888
2017-04-28T13:20:38.565Z,10540
2017-04-28T13:21:38.908Z,10280
2017-04-28T13:22:38.642Z,10276
2017-04-28T13:23:38.993Z,10412
2017-04-28T13:24:39.651Z,10492
2017-04-28T13:25:39.071Z,10552
2017-04-28T13:26:38.804Z,10660
2017-04-28T13:27:39.150Z,10732
2017-04-28T13:28:38.880Z,10680
2017-04-28T13:29:39.537Z,10536
2017-04-28T13:30:39.585Z,10400
2017-04-28T13:31:39.306Z,10336
2017-04-28T13:32:39.036Z,10340
2017-04-28T13:33:39.077Z,10364